createdAt,value
2018-03-17T00:01:00.690Z,7.50
2018-03-17T00:03:28.382Z,6.72
2018-03-17T00:05:57.005Z,7.18
2018-03-17T00:08:24.493Z,6.50
2018-03-17T00:10:52.021Z,7.03
2018-03-17T00:13:19.541Z,6.57
2018-03-17T00:15:47.830Z,6.95
2018-03-17T00:18:15.310Z,6.00
2018-03-17T00:20:42.869Z,6.90
2018-03-17T00:23:10.359Z,7.07
2018-03-17T00:25:37.866Z,6.50
2018-03-17T00:28:05.414Z,6.60
2018-03-17T00:30:32.936Z,6.93
2018-03-17T00:33:00.453Z,6.60
2018-03-17T00:35:27.979Z,6.57
2018-03-17T00:37:55.660Z,6.65
2018-03-17T00:40:23.173Z,6.07
2018-03-17T00:42:50.775Z,6.80
2018-03-17T00:45:19.053Z,6.50
2018-03-17T00:47:46.570Z,6.47
2018-03-17T04:18:03.083Z,11.52
2018-03-17T04:20:30.579Z,11.05
2018-03-17T04:22:58.871Z,10.48
2018-03-17T04:25:26.429Z,12.27
2018-03-17T04:27:53.930Z,11.68
2018-03-17T04:30:21.609Z,13.62
2018-03-17T04:32:49.314Z,13.25
2018-03-17T04:35:16.952Z,13.90
2018-03-17T04:37:44.434Z,14.45
2018-03-17T04:40:11.951Z,14.60
2018-03-17T04:42:39.652Z,14.05
2018-03-17T04:45:07.188Z,14.50
2018-03-17T04:47:34.687Z,13.57
2018-03-17T04:50:02.208Z,13.48
2018-03-17T04:52:29.870Z,12.77
2018-03-17T04:54:58.142Z,13.93
2018-03-17T04:57:26.421Z,13.27
2018-03-17T04:59:54.802Z,13.57
2018-03-17T05:02:22.505Z,13.18
2018-03-17T05:04:50.005Z,13.75
2018-03-17T05:07:19.130Z,12.90
2018-03-17T05:09:46.641Z,14.02
2018-03-17T05:12:14.134Z,14.27
2018-03-17T05:14:42.432Z,14.82
2018-03-17T05:17:09.946Z,16.27
2018-03-17T05:19:37.636Z,15.90
2018-03-17T05:22:05.144Z,15.25
2018-03-17T05:24:32.674Z,15.25
2018-03-17T05:27:00.178Z,15.23
2018-03-17T05:29:27.717Z,15.25
2018-03-17T05:31:55.212Z,16.42
2018-03-17T05:34:23.597Z,15.18
2018-03-17T05:36:51.291Z,16.80
2018-03-17T05:39:18.963Z,15.98
2018-03-17T05:41:47.198Z,16.55
2018-03-17T05:44:15.464Z,15.88
2018-03-17T05:46:42.995Z,16.85
2018-03-17T05:49:10.596Z,16.42
2018-03-17T05:51:38.113Z,16.45
2018-03-17T05:54:05.609Z,16.20
2018-03-17T05:56:33.890Z,16.05
2018-03-17T05:59:01.556Z,15.85
2018-03-17T06:01:29.071Z,16.15
2018-03-17T06:03:56.569Z,15.75
2018-03-17T06:06:24.080Z,15.00
2018-03-17T06:08:51.609Z,15.43
2018-03-17T06:11:19.124Z,15.52
2018-03-17T06:13:47.519Z,14.48
2018-03-17T06:16:15.058Z,14.27
2018-03-17T06:18:42.575Z,14.30
2018-03-17T06:21:10.103Z,13.95
2018-03-17T06:23:37.790Z,13.07
2018-03-17T06:26:05.419Z,13.67
2018-03-17T06:28:32.906Z,13.57
2018-03-17T06:31:00.436Z,13.00
2018-03-17T06:33:27.943Z,13.30
2018-03-17T06:35:55.436Z,13.43
2018-03-17T06:38:22.972Z,13.70
2018-03-17T06:40:50.573Z,15.33
2018-03-17T06:43:18.229Z,15.17
2018-03-17T06:45:46.364Z,15.83
2018-03-17T06:48:13.910Z,15.17
2018-03-17T06:50:41.409Z,14.37
2018-03-17T06:53:09.809Z,14.97
2018-03-17T06:55:37.309Z,14.90
2018-03-17T06:58:04.803Z,15.10
2018-03-17T07:00:33.208Z,14.80
2018-03-17T07:03:00.697Z,15.90
2018-03-17T07:05:28.288Z,13.87
2018-03-17T07:07:55.963Z,13.60
2018-03-17T07:10:23.514Z,13.13
2018-03-17T07:12:51.780Z,12.93
2018-03-17T07:15:19.290Z,12.43
2018-03-17T07:17:46.821Z,13.13
2018-03-17T07:20:14.340Z,12.33
2018-03-17T07:22:41.850Z,12.70
2018-03-17T07:25:09.368Z,13.43
2018-03-17T07:27:36.865Z,14.00
2018-03-17T07:30:04.370Z,15.40
2018-03-17T07:32:31.879Z,16.03
2018-03-17T07:34:59.373Z,16.63
2018-03-17T07:37:26.917Z,17.97
2018-03-17T07:39:54.423Z,19.20
2018-03-17T07:42:22.028Z,19.17
2018-03-17T07:44:49.530Z,21.37
2018-03-17T07:47:18.173Z,19.20
2018-03-17T07:49:45.693Z,17.53
2018-03-17T07:52:13.942Z,17.27
2018-03-17T07:54:41.723Z,16.70
2018-03-17T07:57:09.226Z,15.70
2018-03-17T07:59:36.723Z,16.57
2018-03-17T08:02:04.239Z,17.30
2018-03-17T08:04:31.763Z,15.20
2018-03-17T08:06:59.261Z,16.23
2018-03-17T08:09:26.776Z,16.47
2018-03-17T08:11:54.302Z,16.30
2018-03-17T08:14:21.834Z,17.57
2018-03-17T08:16:57.881Z,17.03
2018-03-17T08:19:25.591Z,16.77
2018-03-17T08:21:53.134Z,16.57
2018-03-17T08:24:20.730Z,16.40
2018-03-17T08:26:48.765Z,16.00
2018-03-17T08:29:16.250Z,15.67
2018-03-17T08:31:43.759Z,15.77
2018-03-17T08:34:11.293Z,16.17
2018-03-17T08:36:38.782Z,16.07
2018-03-17T08:39:06.353Z,15.47
2018-03-17T08:41:33.971Z,16.00
2018-03-17T08:44:02.296Z,17.13
2018-03-17T08:46:29.838Z,15.83
2018-03-17T08:48:57.517Z,15.43
2018-03-17T08:51:25.037Z,16.33
2018-03-17T08:53:52.612Z,16.60
2018-03-17T08:56:20.137Z,16.40
2018-03-17T08:58:47.678Z,16.97
2018-03-17T09:01:15.185Z,16.47
2018-03-17T09:03:42.742Z,16.93
2018-03-17T09:06:10.250Z,17.80
2018-03-17T09:08:37.820Z,17.27
2018-03-17T09:11:06.264Z,17.40
2018-03-17T09:13:33.779Z,19.67
2018-03-17T09:16:02.281Z,19.20
2018-03-17T09:18:29.810Z,19.20
2018-03-17T09:20:57.365Z,19.90
2018-03-17T09:23:25.019Z,20.80
2018-03-17T09:25:52.743Z,20.53
2018-03-17T09:28:20.855Z,22.40
2018-03-17T09:30:48.398Z,21.27
2018-03-17T09:33:15.896Z,23.07
2018-03-17T09:35:43.384Z,23.00
2018-03-17T09:38:10.909Z,23.57
2018-03-17T09:40:39.206Z,24.63
2018-03-17T09:43:06.845Z,24.87
2018-03-17T09:45:35.141Z,26.33
2018-03-17T09:48:03.549Z,27.30
2018-03-17T09:50:31.436Z,27.27
2018-03-17T09:52:58.961Z,28.53
2018-03-17T09:55:26.802Z,27.93
2018-03-17T09:57:54.361Z,29.70
2018-03-17T10:00:22.669Z,30.77
2018-03-17T10:02:50.438Z,31.37
2018-03-17T10:05:18.014Z,32.20
2018-03-17T10:07:45.661Z,30.23
2018-03-17T10:10:13.525Z,30.30
2018-03-17T10:12:41.151Z,31.70
2018-03-17T10:15:08.670Z,34.57
2018-03-17T10:17:36.404Z,34.10
2018-03-17T10:20:04.241Z,34.67
2018-03-17T10:22:31.793Z,32.70
2018-03-17T10:24:59.305Z,29.40
2018-03-17T10:27:27.228Z,29.57
2018-03-17T10:29:54.733Z,28.67
2018-03-17T10:32:22.331Z,29.07
2018-03-17T10:34:49.825Z,27.00
2018-03-17T10:37:17.391Z,28.23
2018-03-17T10:39:44.881Z,29.80
2018-03-17T10:42:12.502Z,33.17
2018-03-17T10:44:40.056Z,34.30
2018-03-17T10:47:07.606Z,30.57
2018-03-17T10:49:35.123Z,27.80
2018-03-17T10:52:02.754Z,27.60
2018-03-17T10:54:30.330Z,30.00
2018-03-17T10:56:58.050Z,34.03
2018-03-17T10:59:25.620Z,27.93
2018-03-17T11:01:53.169Z,26.23
2018-03-17T11:04:20.728Z,26.37
2018-03-17T11:06:48.273Z,25.87
2018-03-17T11:09:16.287Z,27.20
2018-03-17T11:11:43.848Z,23.80
2018-03-17T11:14:11.357Z,25.80
2018-03-17T11:16:39.663Z,26.70
2018-03-17T11:19:07.181Z,23.33
2018-03-17T11:21:34.708Z,24.07
2018-03-17T11:24:02.228Z,37.43
2018-03-17T11:26:29.991Z,25.60
2018-03-17T11:28:57.550Z,26.10
2018-03-17T11:31:25.110Z,23.70
2018-03-17T11:33:52.843Z,24.73
2018-03-17T11:36:20.908Z,24.03
2018-03-17T11:38:49.224Z,26.37
2018-03-17T11:41:17.009Z,25.97
2018-03-17T11:43:47.555Z,23.77
2018-03-17T11:46:15.074Z,25.40
2018-03-17T11:48:42.619Z,25.33
2018-03-17T11:51:10.232Z,24.77
2018-03-17T11:53:38.509Z,24.33
2018-03-17T11:56:06.559Z,25.13
2018-03-17T11:58:34.087Z,24.97
2018-03-17T12:01:02.808Z,25.17
2018-03-17T12:03:30.320Z,24.83
2018-03-17T12:05:59.395Z,24.80
2018-03-17T12:08:27.093Z,25.10
2018-03-17T12:10:54.614Z,24.80
2018-03-17T12:13:22.882Z,25.43
2018-03-17T12:15:50.380Z,24.13
2018-03-17T12:18:17.931Z,23.20
2018-03-17T12:20:45.495Z,22.43
2018-03-17T12:23:13.813Z,22.33
2018-03-17T12:25:41.339Z,21.47
2018-03-17T12:28:08.876Z,22.17
2018-03-17T12:30:36.413Z,21.97
2018-03-17T12:33:04.123Z,21.50
2018-03-17T12:35:31.668Z,20.93
2018-03-17T12:37:59.442Z,22.17
2018-03-17T12:40:27.013Z,22.23
2018-03-17T12:42:54.522Z,21.67
2018-03-17T12:45:23.981Z,22.30
2018-03-17T12:47:51.687Z,21.87
2018-03-17T12:50:19.224Z,21.60
2018-03-17T12:52:46.775Z,21.47
2018-03-17T12:55:14.404Z,20.43
2018-03-17T12:57:42.243Z,20.80
2018-03-17T13:00:10.502Z,21.00
2018-03-17T13:02:38.152Z,20.93
2018-03-17T13:05:05.873Z,21.00
2018-03-17T13:07:33.442Z,21.30
2018-03-17T13:10:00.992Z,20.77
2018-03-17T13:12:28.536Z,20.50
2018-03-17T13:14:56.071Z,21.27
2018-03-17T13:17:23.596Z,21.33
2018-03-17T13:19:51.178Z,24.90
2018-03-17T13:22:18.695Z,21.73
2018-03-17T13:24:46.225Z,20.93
2018-03-17T13:30:17.456Z,21.83
2018-03-17T13:32:52.723Z,21.13
2018-03-17T13:35:20.425Z,20.73
2018-03-17T13:37:47.968Z,21.43
2018-03-17T13:40:27.280Z,19.77
2018-03-17T13:42:54.770Z,20.37
2018-03-17T13:45:22.306Z,21.13
2018-03-17T13:47:49.912Z,21.50
2018-03-17T13:50:17.440Z,20.17
2018-03-17T13:52:45.016Z,19.67
2018-03-17T13:55:12.529Z,20.53
2018-03-17T13:57:40.048Z,21.43
2018-03-17T14:00:07.580Z,20.17
2018-03-17T14:02:35.130Z,20.47
2018-03-17T14:05:02.665Z,21.23
2018-03-17T14:07:30.154Z,20.87
2018-03-17T14:09:57.662Z,21.30
2018-03-17T14:12:25.191Z,22.47
2018-03-17T14:14:52.939Z,23.83
2018-03-17T14:17:20.484Z,21.27
2018-03-17T14:19:48.755Z,21.50
2018-03-17T14:22:16.370Z,20.43
2018-03-17T14:24:43.882Z,20.87
2018-03-17T14:27:11.492Z,20.60
2018-03-17T14:29:39.927Z,19.50
2018-03-17T14:32:07.559Z,20.57
2018-03-17T14:34:35.335Z,20.03
2018-03-17T14:37:02.882Z,21.00
2018-03-17T14:39:31.644Z,21.30
2018-03-17T14:41:59.118Z,19.97
2018-03-17T14:44:26.624Z,20.07
2018-03-17T14:46:54.162Z,20.20
2018-03-17T14:49:21.662Z,21.33
2018-03-17T14:51:49.255Z,20.40
2018-03-17T14:54:16.839Z,19.97
2018-03-17T14:56:44.546Z,21.17
2018-03-17T14:59:12.054Z,20.60
2018-03-17T15:01:40.701Z,20.23
2018-03-17T15:04:08.309Z,19.67
2018-03-17T15:06:35.823Z,19.93
2018-03-17T15:09:03.454Z,18.85
2018-03-17T15:11:31.017Z,20.20
2018-03-17T15:13:58.525Z,19.87
2018-03-17T15:16:26.806Z,19.17
2018-03-17T15:18:54.402Z,19.03
2018-03-17T15:21:21.984Z,18.50
2018-03-17T15:23:49.503Z,18.55
2018-03-17T15:26:17.470Z,19.07
2018-03-17T15:28:44.989Z,18.17
2018-03-17T15:31:12.918Z,18.67
2018-03-17T15:33:40.439Z,18.77
2018-03-17T15:36:07.988Z,17.73
2018-03-17T15:38:35.565Z,18.25
2018-03-17T15:41:03.971Z,17.63
2018-03-17T15:43:31.512Z,17.60
2018-03-17T15:45:59.032Z,18.00
2018-03-17T15:48:26.561Z,16.73
2018-03-17T15:50:54.146Z,18.17
2018-03-17T15:53:22.481Z,17.50
2018-03-17T15:55:49.997Z,18.73
2018-03-17T15:58:17.545Z,17.42
2018-03-17T16:00:45.163Z,18.00
2018-03-17T16:03:12.704Z,17.93
2018-03-17T16:05:40.245Z,18.67
2018-03-17T16:08:07.972Z,17.85
2018-03-17T16:10:35.505Z,17.27
2018-03-17T16:13:03.388Z,17.83
2018-03-17T16:15:30.923Z,18.23
2018-03-17T16:17:58.511Z,17.10
2018-03-17T16:20:26.039Z,19.00
2018-03-17T16:22:53.753Z,18.58
2018-03-17T16:25:21.319Z,18.50
2018-03-17T16:27:48.867Z,18.53
2018-03-17T16:30:17.064Z,18.30
2018-03-17T16:32:44.984Z,19.17
2018-03-17T16:35:12.627Z,18.98
2018-03-17T16:37:40.238Z,20.10
2018-03-17T16:40:08.526Z,19.07
2018-03-17T16:42:36.038Z,19.98
2018-03-17T16:45:03.648Z,17.90
2018-03-17T16:47:31.471Z,19.62
2018-03-17T16:49:59.233Z,18.33
2018-03-17T16:52:26.786Z,19.37
2018-03-17T16:54:54.431Z,18.77
2018-03-17T16:57:22.196Z,18.83
2018-03-17T16:59:49.851Z,18.77
2018-03-17T17:02:17.823Z,18.97
2018-03-17T17:04:45.395Z,23.50
2018-03-17T17:07:12.976Z,20.03
2018-03-17T17:09:40.490Z,20.98
2018-03-17T17:12:08.270Z,19.15
2018-03-17T17:14:35.814Z,19.30
2018-03-17T17:17:05.079Z,20.10
2018-03-17T17:19:32.663Z,18.92
2018-03-17T17:22:00.190Z,19.67
2018-03-17T17:24:28.492Z,19.95
2018-03-17T17:26:56.820Z,20.15
2018-03-17T17:29:24.383Z,20.07
2018-03-17T17:31:51.956Z,20.20
2018-03-17T17:34:19.540Z,19.92
2018-03-17T17:36:47.285Z,23.00
2018-03-17T17:39:14.904Z,20.03
2018-03-17T17:41:42.856Z,19.43
2018-03-17T17:44:10.381Z,19.85
2018-03-17T17:46:38.806Z,19.35
2018-03-17T17:49:06.571Z,18.80
2018-03-17T17:51:34.128Z,20.33
2018-03-17T17:54:01.900Z,19.83
2018-03-17T17:56:29.602Z,20.25
2018-03-17T17:58:57.152Z,20.77
2018-03-17T18:01:24.666Z,19.70
2018-03-17T18:03:52.232Z,19.58
2018-03-17T18:06:19.768Z,18.70
2018-03-17T18:08:47.367Z,17.83
2018-03-17T18:11:14.903Z,18.42
2018-03-17T18:13:42.891Z,17.90
2018-03-17T18:16:10.443Z,18.90
2018-03-17T18:18:37.952Z,20.92
2018-03-17T18:21:06.244Z,17.05
2018-03-17T18:23:34.663Z,16.00
2018-03-17T18:26:02.321Z,16.95
2018-03-17T18:28:29.840Z,16.90
2018-03-17T18:30:57.358Z,17.35
2018-03-17T18:33:25.012Z,16.45
2018-03-17T18:35:52.766Z,15.98
2018-03-17T18:38:20.426Z,16.92
2018-03-17T18:40:47.985Z,17.05
2018-03-17T18:43:15.931Z,17.75
2018-03-17T18:45:43.453Z,16.90
2018-03-17T18:48:11.423Z,17.33
2018-03-17T18:50:39.003Z,20.30
2018-03-17T18:53:07.309Z,18.40
2018-03-17T18:55:34.910Z,18.25
2018-03-17T18:58:03.414Z,16.90
2018-03-17T19:00:30.898Z,18.48
2018-03-17T19:02:58.477Z,16.48
2018-03-17T19:05:26.080Z,17.77
2018-03-17T19:07:53.576Z,17.15
2018-03-17T19:10:21.629Z,18.55
2018-03-17T19:12:49.900Z,19.20
2018-03-17T19:15:18.198Z,19.52
2018-03-17T19:17:45.758Z,17.62
2018-03-17T19:20:13.326Z,16.92
2018-03-17T19:22:40.870Z,17.45
2018-03-17T19:25:09.199Z,16.87
2018-03-17T19:27:36.811Z,17.70
2018-03-17T19:30:04.342Z,16.62
2018-03-17T19:32:31.932Z,15.98
2018-03-17T19:34:59.491Z,14.40
2018-03-17T19:37:27.076Z,17.37
2018-03-17T19:39:54.629Z,18.12
2018-03-17T19:42:22.173Z,17.60
2018-03-17T19:44:49.715Z,17.70
2018-03-17T19:47:17.377Z,17.50
2018-03-17T19:49:44.961Z,17.92
2018-03-17T19:52:12.590Z,17.73
2018-03-17T19:54:40.597Z,18.05
2018-03-17T19:57:08.369Z,17.67
2018-03-17T19:59:36.335Z,18.90
2018-03-17T20:02:04.100Z,18.17
2018-03-17T20:04:31.599Z,17.80
2018-03-17T20:06:59.148Z,19.37
2018-03-17T20:09:26.727Z,19.02
2018-03-17T20:11:54.435Z,19.17
2018-03-17T20:14:22.135Z,18.55
2018-03-17T20:16:49.833Z,19.77
2018-03-17T20:19:18.226Z,18.15
2018-03-17T20:21:45.844Z,18.80
2018-03-17T20:24:13.624Z,19.20
2018-03-17T20:26:42.723Z,20.08
2018-03-17T20:29:10.320Z,19.65
2018-03-17T20:31:37.836Z,19.27
2018-03-17T20:34:05.396Z,20.30
2018-03-17T20:36:33.737Z,20.23
2018-03-17T20:39:01.257Z,25.12
2018-03-17T20:41:29.070Z,21.92
2018-03-17T20:43:56.594Z,21.10
2018-03-17T20:46:25.053Z,20.55
2018-03-17T20:48:52.549Z,21.50
2018-03-17T20:51:20.140Z,21.98
2018-03-17T20:53:47.655Z,19.48
2018-03-17T20:56:15.633Z,20.92
2018-03-17T20:58:43.218Z,21.02
2018-03-17T21:01:10.802Z,21.87
2018-03-17T21:03:38.321Z,22.20
2018-03-17T21:06:06.169Z,21.80
2018-03-17T21:08:33.728Z,20.98
2018-03-17T21:11:02.086Z,23.20
2018-03-17T21:13:29.657Z,18.33
2018-03-17T21:15:57.962Z,22.50
2018-03-17T21:18:25.513Z,22.60
2018-03-17T21:20:53.361Z,23.00
2018-03-17T21:23:21.790Z,21.02
2018-03-17T21:25:49.333Z,23.42
2018-03-17T21:28:16.872Z,23.45
2018-03-17T21:30:44.441Z,23.10
2018-03-17T21:33:11.962Z,23.17
2018-03-17T21:35:39.539Z,24.77
2018-03-17T21:38:07.049Z,25.10
2018-03-17T21:40:34.641Z,23.58
2018-03-17T21:43:02.144Z,24.25
2018-03-17T21:45:30.081Z,24.83
2018-03-17T21:47:58.499Z,24.95
2018-03-17T21:50:26.090Z,23.75
2018-03-17T21:52:53.641Z,29.10
2018-03-17T21:55:21.267Z,24.08
2018-03-17T21:57:48.795Z,23.73
2018-03-17T22:00:17.076Z,23.25
2018-03-17T22:02:44.636Z,23.65
2018-03-17T22:05:12.147Z,23.90
2018-03-17T22:07:39.681Z,25.30
2018-03-17T22:10:07.325Z,25.08
2018-03-17T22:12:34.888Z,24.60
2018-03-17T22:15:02.395Z,25.45
2018-03-17T22:17:30.094Z,24.33
2018-03-17T22:19:58.528Z,25.88
2018-03-17T22:22:26.039Z,24.85
2018-03-17T22:24:54.341Z,26.10
2018-03-17T22:27:22.167Z,25.62
2018-03-17T22:29:50.572Z,24.67
2018-03-17T22:32:18.106Z,24.75
2018-03-17T22:34:45.636Z,25.73
2018-03-17T22:37:13.126Z,30.30
2018-03-17T22:39:40.671Z,23.75
2018-03-17T22:42:08.159Z,24.52
2018-03-17T22:44:35.794Z,30.10
2018-03-17T22:47:04.089Z,24.73
2018-03-17T22:49:32.345Z,24.40
2018-03-17T22:51:59.893Z,23.20
2018-03-17T22:54:27.399Z,24.27
2018-03-17T22:56:54.935Z,24.73
2018-03-17T22:59:23.211Z,24.40
2018-03-17T23:01:51.511Z,25.67
2018-03-17T23:04:19.415Z,24.63
2018-03-17T23:06:46.942Z,25.42
2018-03-17T23:09:14.468Z,26.27
2018-03-17T23:11:41.959Z,27.40
2018-03-17T23:14:09.518Z,26.15
2018-03-17T23:16:37.022Z,26.85
2018-03-17T23:19:04.599Z,27.05
2018-03-17T23:21:32.120Z,31.90
2018-03-17T23:23:59.681Z,27.52
2018-03-17T23:26:27.189Z,26.45
2018-03-17T23:28:54.746Z,26.83
2018-03-17T23:31:22.436Z,27.42
2018-03-17T23:33:49.935Z,27.60
2018-03-17T23:36:17.478Z,27.95
2018-03-17T23:38:44.980Z,27.23
2018-03-17T23:41:13.271Z,27.58
2018-03-17T23:43:40.784Z,29.15
2018-03-17T23:46:08.288Z,28.33
2018-03-17T23:48:35.879Z,29.40
2018-03-17T23:51:03.404Z,30.15
2018-03-17T23:53:30.909Z,27.50
2018-03-17T23:55:58.423Z,29.75
2018-03-17T23:58:26.351Z,28.90
